TRA6215 EHEH-GCTS
Flight info
| Callsign | TRA6215 |
|---|---|
| Flight time | 4h 34m |
| Altitude | 31000 |
| Route | WOODY N872 CIV DCT KOVIN/N0455F330 DCT DUCRA UM728 RESMI UN857 DISAK DCT ARKIP DCT ARNAV DCT LMG DCT UVELI DCT OSMOB DCT VAVIX DCT BTZ DCT URUNA DCT SSN DCT VRA DCT NEA L14 ADINO DCT RAKOD DCT ELVAR DCT ALAGU DCT MARIM DCT VFA DCT OSLAD UR724 IBALU UN857 TERTO |
| Aircraft | B738/M-SDE2E3FGHIRWXY/LB1 |
Departure
| Time | 2026-04-30 01:26 |
|---|---|
| Airport | Eindhoven Airport (EHEH) |
Arrival
| Time | 2026-04-30 06:00 |
|---|---|
| Airport | Tenerife Sur Airport (GCTS) |
| Time | Latitude | Longitude | Altitude | Speed | Heading |
|---|---|---|---|---|---|
| 2026-04-30 00:57 | 51.45856 | 5.39052 | 83 ft | 0 kts | 123° |
| 2026-04-30 01:09 | 51.45857 | 5.39050 | 83 ft | 1 kts | 124° |
| 2026-04-30 01:09 | 51.45865 | 5.39031 | 83 ft | 2 kts | 123° |
| 2026-04-30 01:10 | 51.45874 | 5.39011 | 83 ft | 2 kts | 124° |
| 2026-04-30 01:10 | 51.45882 | 5.38991 | 83 ft | 2 kts | 123° |
| 2026-04-30 01:10 | 51.45891 | 5.38971 | 83 ft | 2 kts | 148° |
| 2026-04-30 01:10 | 51.45906 | 5.38965 | 83 ft | 2 kts | 185° |
| 2026-04-30 01:11 | 51.45918 | 5.38971 | 83 ft | 1 kts | 216° |
| 2026-04-30 01:11 | 51.45929 | 5.38986 | 83 ft | 2 kts | 211° |
| 2026-04-30 01:11 | 51.45942 | 5.38998 | 83 ft | 2 kts | 213° |
| 2026-04-30 01:11 | 51.45947 | 5.39003 | 83 ft | 0 kts | 214° |
| 2026-04-30 01:14 | 51.45938 | 5.38994 | 83 ft | 3 kts | 214° |
| 2026-04-30 01:15 | 51.45914 | 5.38968 | 83 ft | 3 kts | 214° |
| 2026-04-30 01:15 | 51.45897 | 5.38949 | 83 ft | 2 kts | 214° |
| 2026-04-30 01:15 | 51.45884 | 5.38934 | 83 ft | 3 kts | 214° |
| 2026-04-30 01:15 | 51.45856 | 5.38904 | 83 ft | 6 kts | 214° |
| 2026-04-30 01:16 | 51.45813 | 5.38857 | 83 ft | 8 kts | 214° |
| 2026-04-30 01:16 | 51.45795 | 5.38814 | 83 ft | 4 kts | 261° |
| 2026-04-30 01:16 | 51.45794 | 5.38802 | 83 ft | 5 kts | 270° |
| 2026-04-30 01:16 | 51.45811 | 5.38734 | 83 ft | 8 kts | 304° |
| 2026-04-30 01:17 | 51.45849 | 5.38648 | 83 ft | 10 kts | 305° |
| 2026-04-30 01:17 | 51.45896 | 5.38538 | 83 ft | 13 kts | 304° |
| 2026-04-30 01:17 | 51.45956 | 5.38403 | 83 ft | 15 kts | 307° |
| 2026-04-30 01:17 | 51.45997 | 5.38313 | 83 ft | 4 kts | 291° |
| 2026-04-30 01:18 | 51.45990 | 5.38272 | 83 ft | 4 kts | 233° |
| 2026-04-30 01:18 | 51.45960 | 5.38232 | 83 ft | 7 kts | 212° |
| 2026-04-30 01:18 | 51.45911 | 5.38179 | 83 ft | 9 kts | 215° |
| 2026-04-30 01:18 | 51.45849 | 5.38109 | 83 ft | 12 kts | 214° |
| 2026-04-30 01:19 | 51.45770 | 5.38022 | 83 ft | 15 kts | 214° |
| 2026-04-30 01:19 | 51.45675 | 5.37915 | 83 ft | 17 kts | 215° |
| 2026-04-30 01:19 | 51.45565 | 5.37791 | 83 ft | 20 kts | 215° |
| 2026-04-30 01:19 | 51.45440 | 5.37651 | 83 ft | 23 kts | 214° |
| 2026-04-30 01:20 | 51.45300 | 5.37497 | 83 ft | 24 kts | 215° |
| 2026-04-30 01:20 | 51.45164 | 5.37343 | 83 ft | 22 kts | 214° |
| 2026-04-30 01:20 | 51.45039 | 5.37203 | 83 ft | 21 kts | 214° |
| 2026-04-30 01:20 | 51.44920 | 5.37069 | 83 ft | 19 kts | 214° |
| 2026-04-30 01:21 | 51.44811 | 5.36947 | 83 ft | 18 kts | 214° |
| 2026-04-30 01:21 | 51.44710 | 5.36835 | 83 ft | 16 kts | 214° |
| 2026-04-30 01:21 | 51.44618 | 5.36730 | 83 ft | 15 kts | 215° |
| 2026-04-30 01:21 | 51.44535 | 5.36636 | 83 ft | 14 kts | 214° |
| 2026-04-30 01:22 | 51.44458 | 5.36551 | 83 ft | 12 kts | 214° |
| 2026-04-30 01:22 | 51.44390 | 5.36475 | 83 ft | 11 kts | 214° |
| 2026-04-30 01:22 | 51.44331 | 5.36409 | 83 ft | 10 kts | 214° |
| 2026-04-30 01:22 | 51.44266 | 5.36337 | 83 ft | 12 kts | 214° |
| 2026-04-30 01:23 | 51.44188 | 5.36247 | 83 ft | 14 kts | 215° |
| 2026-04-30 01:23 | 51.44111 | 5.36161 | 83 ft | 12 kts | 214° |
| 2026-04-30 01:23 | 51.44043 | 5.36086 | 83 ft | 6 kts | 214° |
| 2026-04-30 01:23 | 51.44003 | 5.36068 | 83 ft | 7 kts | 171° |
| 2026-04-30 01:24 | 51.43971 | 5.36109 | 83 ft | 7 kts | 127° |
| 2026-04-30 01:24 | 51.43938 | 5.36184 | 83 ft | 9 kts | 123° |
| 2026-04-30 01:24 | 51.43928 | 5.36222 | 83 ft | 2 kts | 82° |
| 2026-04-30 01:24 | 51.43945 | 5.36255 | 83 ft | 5 kts | 37° |
| 2026-04-30 01:25 | 51.43980 | 5.36294 | 83 ft | 7 kts | 34° |
| 2026-04-30 01:25 | 51.44066 | 5.36390 | 83 ft | 35 kts | 34° |
| 2026-04-30 01:25 | 51.44461 | 5.36833 | 83 ft | 101 kts | 35° |
| 2026-04-30 01:25 | 51.45207 | 5.37669 | 83 ft | 157 kts | 35° |
| 2026-04-30 01:26 | 51.46198 | 5.38756 | 439 ft | 175 kts | 36° |
| 2026-04-30 01:26 | 51.47135 | 5.39826 | 1274 ft | 168 kts | 43° |
| 2026-04-30 01:26 | 51.48098 | 5.40872 | 1887 ft | 170 kts | 43° |
| 2026-04-30 01:26 | 51.49089 | 5.41979 | 2247 ft | 179 kts | 45° |
| 2026-04-30 01:27 | 51.50124 | 5.43189 | 2597 ft | 190 kts | 43° |
| 2026-04-30 01:27 | 51.51273 | 5.44341 | 2997 ft | 205 kts | 28° |
| 2026-04-30 01:27 | 51.52785 | 5.44553 | 3210 ft | 239 kts | 352° |
| 2026-04-30 01:27 | 51.54314 | 5.43306 | 3690 ft | 258 kts | 320° |
| 2026-04-30 01:28 | 51.55386 | 5.40981 | 4341 ft | 263 kts | 293° |
| 2026-04-30 01:28 | 51.55674 | 5.38097 | 4822 ft | 269 kts | 258° |
| 2026-04-30 01:28 | 51.55092 | 5.35298 | 5471 ft | 263 kts | 239° |
| 2026-04-30 01:28 | 51.54228 | 5.32711 | 6043 ft | 267 kts | 237° |
| 2026-04-30 01:29 | 51.53350 | 5.30056 | 6606 ft | 270 kts | 239° |
| 2026-04-30 01:29 | 51.52527 | 5.27338 | 7152 ft | 274 kts | 242° |
| 2026-04-30 01:29 | 51.51738 | 5.24575 | 7740 ft | 278 kts | 243° |
| 2026-04-30 01:29 | 51.50950 | 5.21699 | 8231 ft | 283 kts | 246° |
| 2026-04-30 01:30 | 51.50455 | 5.18646 | 8775 ft | 287 kts | 266° |
| 2026-04-30 01:30 | 51.50645 | 5.15425 | 9106 ft | 297 kts | 285° |
| 2026-04-30 01:30 | 51.51243 | 5.12193 | 9438 ft | 309 kts | 290° |
| 2026-04-30 01:30 | 51.51936 | 5.08820 | 9883 ft | 317 kts | 290° |
| 2026-04-30 01:31 | 51.52589 | 5.05460 | 10459 ft | 319 kts | 289° |
| 2026-04-30 01:31 | 51.53224 | 5.01971 | 10762 ft | 332 kts | 288° |
| 2026-04-30 01:31 | 51.53856 | 4.98335 | 11026 ft | 346 kts | 287° |
| 2026-04-30 01:31 | 51.54504 | 4.94518 | 11308 ft | 360 kts | 287° |
| 2026-04-30 01:32 | 51.55164 | 4.90593 | 11530 ft | 374 kts | 287° |
| 2026-04-30 01:32 | 51.55743 | 4.86395 | 11749 ft | 390 kts | 278° |
| 2026-04-30 01:32 | 51.55748 | 4.81983 | 12082 ft | 400 kts | 262° |
| 2026-04-30 01:32 | 51.55253 | 4.77570 | 12597 ft | 405 kts | 258° |
| 2026-04-30 01:33 | 51.54620 | 4.73188 | 13193 ft | 406 kts | 256° |
| 2026-04-30 01:33 | 51.53944 | 4.68778 | 13656 ft | 411 kts | 256° |
| 2026-04-30 01:33 | 51.53265 | 4.64324 | 14147 ft | 414 kts | 256° |
| 2026-04-30 01:33 | 51.52606 | 4.59860 | 14747 ft | 414 kts | 257° |
| 2026-04-30 01:34 | 51.51958 | 4.55346 | 15263 ft | 418 kts | 257° |
| 2026-04-30 01:34 | 51.51243 | 4.50788 | 15760 ft | 421 kts | 253° |
| 2026-04-30 01:34 | 51.50129 | 4.46514 | 16199 ft | 422 kts | 238° |
| 2026-04-30 01:34 | 51.48264 | 4.42906 | 16689 ft | 420 kts | 219° |
| 2026-04-30 01:35 | 51.45818 | 4.40368 | 17175 ft | 418 kts | 205° |
| 2026-04-30 01:35 | 51.43190 | 4.38345 | 17527 ft | 423 kts | 202° |
| 2026-04-30 01:35 | 51.40530 | 4.36400 | 18096 ft | 423 kts | 202° |
| 2026-04-30 01:35 | 51.37844 | 4.34447 | 18513 ft | 428 kts | 201° |
| 2026-04-30 01:36 | 51.35146 | 4.32468 | 19004 ft | 429 kts | 202° |
| 2026-04-30 01:36 | 51.32427 | 4.30451 | 19481 ft | 432 kts | 202° |
| 2026-04-30 01:36 | 51.29702 | 4.28410 | 19925 ft | 434 kts | 202° |
| 2026-04-30 01:36 | 51.26966 | 4.26346 | 20396 ft | 436 kts | 202° |
| 2026-04-30 01:37 | 51.24229 | 4.24274 | 20791 ft | 440 kts | 202° |
| 2026-04-30 01:37 | 51.21463 | 4.22179 | 21225 ft | 442 kts | 202° |
| 2026-04-30 01:37 | 51.18691 | 4.20080 | 21614 ft | 444 kts | 202° |
| 2026-04-30 01:37 | 51.15890 | 4.18011 | 22050 ft | 445 kts | 200° |
| 2026-04-30 01:38 | 51.13038 | 4.16188 | 22436 ft | 446 kts | 198° |
| 2026-04-30 01:38 | 51.10101 | 4.14523 | 22859 ft | 447 kts | 196° |
| 2026-04-30 01:38 | 51.07155 | 4.12950 | 23165 ft | 451 kts | 195° |
| 2026-04-30 01:38 | 51.04174 | 4.11392 | 23558 ft | 452 kts | 195° |
| 2026-04-30 01:39 | 51.01162 | 4.09819 | 23922 ft | 455 kts | 195° |
| 2026-04-30 01:39 | 50.98182 | 4.08251 | 24348 ft | 455 kts | 195° |
| 2026-04-30 01:39 | 50.95152 | 4.06644 | 24632 ft | 459 kts | 195° |
| 2026-04-30 01:39 | 50.92146 | 4.05038 | 24991 ft | 461 kts | 195° |
| 2026-04-30 01:40 | 50.89116 | 4.03410 | 25426 ft | 462 kts | 195° |
| 2026-04-30 01:40 | 50.86041 | 4.01716 | 25706 ft | 466 kts | 197° |
| 2026-04-30 01:40 | 50.83016 | 3.99895 | 26033 ft | 469 kts | 198° |
| 2026-04-30 01:40 | 50.79991 | 3.97969 | 26377 ft | 471 kts | 199° |
| 2026-04-30 01:41 | 50.76975 | 3.96003 | 26672 ft | 474 kts | 199° |
| 2026-04-30 01:41 | 50.73928 | 3.94005 | 27051 ft | 475 kts | 199° |
| 2026-04-30 01:41 | 50.70873 | 3.92006 | 27411 ft | 476 kts | 199° |
| 2026-04-30 01:41 | 50.67807 | 3.90010 | 27825 ft | 475 kts | 199° |
| 2026-04-30 01:42 | 50.64754 | 3.88034 | 28318 ft | 472 kts | 198° |
| 2026-04-30 01:42 | 50.61731 | 3.86087 | 28764 ft | 471 kts | 198° |
| 2026-04-30 01:42 | 50.58678 | 3.84132 | 29165 ft | 470 kts | 198° |
| 2026-04-30 01:42 | 50.55686 | 3.82209 | 29601 ft | 468 kts | 199° |
| 2026-04-30 01:43 | 50.52694 | 3.80220 | 30005 ft | 467 kts | 199° |
| 2026-04-30 01:43 | 50.49719 | 3.78191 | 30411 ft | 465 kts | 199° |
| 2026-04-30 01:43 | 50.46782 | 3.76168 | 30750 ft | 464 kts | 200° |
| 2026-04-30 01:43 | 50.43815 | 3.74122 | 31042 ft | 464 kts | 199° |
| 2026-04-30 01:44 | 50.40883 | 3.72106 | 31247 ft | 465 kts | 199° |
| 2026-04-30 01:44 | 50.37914 | 3.70073 | 31242 ft | 467 kts | 199° |
| 2026-04-30 01:44 | 50.31998 | 3.66039 | 31241 ft | 464 kts | 199° |
| 2026-04-30 01:45 | 50.26084 | 3.62033 | 31231 ft | 465 kts | 199° |
| 2026-04-30 01:45 | 50.20121 | 3.58012 | 31224 ft | 465 kts | 199° |
| 2026-04-30 01:46 | 50.14177 | 3.54018 | 31216 ft | 465 kts | 199° |
| 2026-04-30 01:46 | 50.08276 | 3.50064 | 31208 ft | 464 kts | 199° |
| 2026-04-30 01:47 | 50.02349 | 3.46106 | 31207 ft | 463 kts | 199° |
| 2026-04-30 01:47 | 49.96428 | 3.42161 | 31214 ft | 465 kts | 199° |
| 2026-04-30 01:48 | 49.90496 | 3.38218 | 31208 ft | 464 kts | 199° |
| 2026-04-30 01:48 | 49.84539 | 3.34271 | 31207 ft | 464 kts | 199° |
| 2026-04-30 01:49 | 49.78630 | 3.30365 | 31203 ft | 463 kts | 199° |
| 2026-04-30 01:49 | 49.72711 | 3.26461 | 31198 ft | 462 kts | 199° |
| 2026-04-30 01:50 | 49.66806 | 3.22579 | 31191 ft | 462 kts | 199° |
| 2026-04-30 01:50 | 49.60863 | 3.18682 | 31192 ft | 463 kts | 199° |
| 2026-04-30 01:51 | 49.54937 | 3.14806 | 31193 ft | 462 kts | 199° |
| 2026-04-30 01:51 | 49.49054 | 3.10792 | 31189 ft | 465 kts | 204° |
| 2026-04-30 01:52 | 49.43447 | 3.05758 | 31216 ft | 469 kts | 210° |
| 2026-04-30 01:52 | 49.38005 | 3.00224 | 31387 ft | 472 kts | 212° |
| 2026-04-30 01:53 | 49.35270 | 2.97386 | 31498 ft | 470 kts | 212° |
| 2026-04-30 01:53 | 49.32567 | 2.94586 | 31597 ft | 470 kts | 212° |
| 2026-04-30 01:53 | 49.27168 | 2.89036 | 31797 ft | 469 kts | 212° |
| 2026-04-30 01:54 | 49.21726 | 2.83503 | 31999 ft | 468 kts | 212° |
| 2026-04-30 01:54 | 49.16316 | 2.78045 | 32200 ft | 468 kts | 212° |
| 2026-04-30 01:55 | 49.13564 | 2.75280 | 32310 ft | 467 kts | 212° |
| 2026-04-30 01:55 | 49.10855 | 2.72564 | 32404 ft | 467 kts | 212° |
| 2026-04-30 01:55 | 49.08144 | 2.69852 | 32506 ft | 466 kts | 212° |
| 2026-04-30 01:55 | 49.05436 | 2.67146 | 32605 ft | 465 kts | 212° |
| 2026-04-30 01:56 | 49.02730 | 2.64448 | 32708 ft | 464 kts | 213° |
| 2026-04-30 01:56 | 49.00038 | 2.61766 | 32813 ft | 465 kts | 213° |
| 2026-04-30 01:56 | 48.94656 | 2.56416 | 33010 ft | 465 kts | 213° |
| 2026-04-30 01:57 | 48.91931 | 2.53712 | 33140 ft | 464 kts | 213° |
| 2026-04-30 01:57 | 48.89237 | 2.51043 | 33147 ft | 465 kts | 213° |
| 2026-04-30 01:57 | 48.83851 | 2.45715 | 33142 ft | 461 kts | 213° |
| 2026-04-30 01:58 | 48.78497 | 2.40431 | 33147 ft | 462 kts | 213° |
| 2026-04-30 01:58 | 48.73101 | 2.35120 | 33135 ft | 463 kts | 214° |
| 2026-04-30 01:59 | 48.65025 | 2.27197 | 33131 ft | 461 kts | 213° |
| 2026-04-30 02:00 | 48.59629 | 2.22021 | 33123 ft | 460 kts | 211° |
| 2026-04-30 02:00 | 48.53807 | 2.18118 | 33116 ft | 462 kts | 197° |
| 2026-04-30 02:01 | 48.47588 | 2.15788 | 33102 ft | 461 kts | 192° |
| 2026-04-30 02:01 | 48.41312 | 2.13889 | 33105 ft | 462 kts | 191° |
| 2026-04-30 02:02 | 48.34993 | 2.12004 | 33091 ft | 461 kts | 192° |
| 2026-04-30 02:02 | 48.28706 | 2.10661 | 33084 ft | 462 kts | 182° |
| 2026-04-30 02:03 | 48.22280 | 2.11118 | 33087 ft | 463 kts | 174° |
| 2026-04-30 02:03 | 48.15892 | 2.12394 | 33082 ft | 462 kts | 173° |
| 2026-04-30 02:04 | 48.09530 | 2.12817 | 33078 ft | 460 kts | 184° |
| 2026-04-30 02:04 | 48.03200 | 2.11766 | 33084 ft | 460 kts | 189° |
| 2026-04-30 02:05 | 47.96866 | 2.10362 | 33077 ft | 458 kts | 189° |
| 2026-04-30 02:05 | 47.90534 | 2.08980 | 33079 ft | 458 kts | 189° |
| 2026-04-30 02:06 | 47.84222 | 2.07678 | 33079 ft | 459 kts | 188° |
| 2026-04-30 02:06 | 47.77902 | 2.06428 | 33063 ft | 457 kts | 188° |
| 2026-04-30 02:07 | 47.71639 | 2.05221 | 33063 ft | 455 kts | 188° |
| 2026-04-30 02:07 | 47.65428 | 2.03936 | 33054 ft | 455 kts | 191° |
| 2026-04-30 02:08 | 47.59337 | 2.01540 | 33055 ft | 452 kts | 200° |
| 2026-04-30 02:08 | 47.53453 | 1.98237 | 33052 ft | 452 kts | 202° |
| 2026-04-30 02:09 | 47.47635 | 1.94753 | 33041 ft | 451 kts | 203° |
| 2026-04-30 02:09 | 47.41816 | 1.91289 | 33043 ft | 451 kts | 202° |
| 2026-04-30 02:10 | 47.36003 | 1.87880 | 33040 ft | 449 kts | 202° |
| 2026-04-30 02:10 | 47.30204 | 1.84520 | 33043 ft | 450 kts | 202° |
| 2026-04-30 02:11 | 47.24412 | 1.81191 | 33037 ft | 449 kts | 202° |
| 2026-04-30 02:11 | 47.18588 | 1.77859 | 33031 ft | 449 kts | 201° |
| 2026-04-30 02:12 | 47.12747 | 1.74557 | 33025 ft | 448 kts | 201° |
| 2026-04-30 02:12 | 47.06956 | 1.71303 | 33023 ft | 448 kts | 201° |
| 2026-04-30 02:13 | 47.01113 | 1.68025 | 33017 ft | 448 kts | 201° |
| 2026-04-30 02:13 | 46.95306 | 1.64774 | 33016 ft | 447 kts | 201° |
| 2026-04-30 02:14 | 46.89509 | 1.61535 | 33010 ft | 447 kts | 201° |
| 2026-04-30 02:14 | 46.83752 | 1.58325 | 33010 ft | 446 kts | 201° |
| 2026-04-30 02:15 | 46.77947 | 1.55097 | 33005 ft | 444 kts | 201° |
| 2026-04-30 02:15 | 46.72195 | 1.51905 | 33003 ft | 445 kts | 201° |
| 2026-04-30 02:16 | 46.66403 | 1.48697 | 32995 ft | 444 kts | 200° |
| 2026-04-30 02:16 | 46.60632 | 1.45508 | 32997 ft | 444 kts | 200° |
| 2026-04-30 02:17 | 46.54888 | 1.42342 | 32988 ft | 443 kts | 200° |
| 2026-04-30 02:17 | 46.49131 | 1.39175 | 32985 ft | 443 kts | 200° |
| 2026-04-30 02:18 | 46.43346 | 1.36000 | 32987 ft | 443 kts | 200° |
| 2026-04-30 02:18 | 46.37595 | 1.32851 | 32985 ft | 441 kts | 200° |
| 2026-04-30 02:19 | 46.31862 | 1.29720 | 32988 ft | 441 kts | 199° |
| 2026-04-30 02:19 | 46.26130 | 1.26597 | 32989 ft | 441 kts | 199° |
| 2026-04-30 02:20 | 46.20394 | 1.23478 | 32982 ft | 440 kts | 199° |
| 2026-04-30 02:20 | 46.14655 | 1.20365 | 32984 ft | 441 kts | 199° |
| 2026-04-30 02:21 | 46.08927 | 1.17265 | 32979 ft | 441 kts | 199° |
| 2026-04-30 02:21 | 46.03225 | 1.14188 | 32992 ft | 440 kts | 199° |
| 2026-04-30 02:22 | 45.97483 | 1.11097 | 32994 ft | 438 kts | 199° |
| 2026-04-30 02:22 | 45.91785 | 1.08035 | 32994 ft | 438 kts | 199° |
| 2026-04-30 02:23 | 45.86112 | 1.04977 | 32990 ft | 437 kts | 200° |
| 2026-04-30 02:23 | 45.80676 | 1.01098 | 32989 ft | 439 kts | 212° |
| 2026-04-30 02:24 | 45.75784 | 0.95923 | 32979 ft | 440 kts | 218° |
| 2026-04-30 02:24 | 45.71077 | 0.90269 | 32969 ft | 440 kts | 219° |
| 2026-04-30 02:25 | 45.66452 | 0.84614 | 32966 ft | 440 kts | 219° |
| 2026-04-30 02:25 | 45.61781 | 0.78953 | 32961 ft | 439 kts | 219° |
| 2026-04-30 02:26 | 45.57120 | 0.73362 | 32958 ft | 438 kts | 219° |
| 2026-04-30 02:26 | 45.52472 | 0.67826 | 32957 ft | 438 kts | 219° |
| 2026-04-30 02:27 | 45.47801 | 0.62291 | 32958 ft | 438 kts | 219° |
| 2026-04-30 02:27 | 45.43130 | 0.56771 | 32957 ft | 437 kts | 218° |
| 2026-04-30 02:28 | 45.38455 | 0.51259 | 32960 ft | 437 kts | 219° |
| 2026-04-30 02:28 | 45.33795 | 0.45783 | 32960 ft | 437 kts | 219° |
| 2026-04-30 02:29 | 45.29105 | 0.40287 | 32956 ft | 436 kts | 219° |
| 2026-04-30 02:29 | 45.24453 | 0.34843 | 32960 ft | 436 kts | 218° |
| 2026-04-30 02:30 | 45.19759 | 0.29363 | 32956 ft | 436 kts | 218° |
| 2026-04-30 02:30 | 45.15076 | 0.23908 | 32953 ft | 435 kts | 218° |
| 2026-04-30 02:31 | 45.10423 | 0.18504 | 32952 ft | 436 kts | 218° |
| 2026-04-30 02:31 | 45.05741 | 0.13071 | 32946 ft | 436 kts | 218° |
| 2026-04-30 02:32 | 45.01043 | 0.07636 | 32947 ft | 435 kts | 218° |
| 2026-04-30 02:32 | 44.96375 | 0.02249 | 32945 ft | 436 kts | 218° |
| 2026-04-30 02:33 | 44.91697 | -0.03141 | 32945 ft | 435 kts | 218° |
| 2026-04-30 02:33 | 44.87015 | -0.08526 | 32938 ft | 434 kts | 218° |
| 2026-04-30 02:34 | 44.82361 | -0.13868 | 32936 ft | 434 kts | 218° |
| 2026-04-30 02:34 | 44.77678 | -0.19231 | 32921 ft | 431 kts | 218° |
| 2026-04-30 02:35 | 44.73047 | -0.24523 | 32919 ft | 431 kts | 218° |
| 2026-04-30 02:35 | 44.68389 | -0.29835 | 32924 ft | 431 kts | 218° |
| 2026-04-30 02:36 | 44.63742 | -0.35083 | 32927 ft | 430 kts | 216° |
| 2026-04-30 02:36 | 44.58863 | -0.39947 | 32921 ft | 429 kts | 213° |
| 2026-04-30 02:37 | 44.53932 | -0.44568 | 32922 ft | 429 kts | 212° |
| 2026-04-30 02:37 | 44.48958 | -0.49234 | 32922 ft | 428 kts | 213° |
| 2026-04-30 02:38 | 44.44069 | -0.53865 | 32918 ft | 427 kts | 213° |
| 2026-04-30 02:38 | 44.39122 | -0.58573 | 32916 ft | 428 kts | 213° |
| 2026-04-30 02:39 | 44.34237 | -0.63230 | 32915 ft | 426 kts | 213° |
| 2026-04-30 02:39 | 44.29326 | -0.67905 | 32924 ft | 426 kts | 212° |
| 2026-04-30 02:40 | 44.24482 | -0.72610 | 32924 ft | 427 kts | 214° |
| 2026-04-30 02:40 | 44.19698 | -0.77506 | 32927 ft | 426 kts | 214° |
| 2026-04-30 02:41 | 44.14960 | -0.82392 | 32930 ft | 426 kts | 214° |
| 2026-04-30 02:41 | 44.10212 | -0.87262 | 32924 ft | 424 kts | 214° |
| 2026-04-30 02:42 | 44.05447 | -0.92118 | 32928 ft | 424 kts | 214° |
| 2026-04-30 02:42 | 44.00682 | -0.96952 | 32925 ft | 423 kts | 214° |
| 2026-04-30 02:43 | 43.95939 | -1.01751 | 32930 ft | 422 kts | 214° |
| 2026-04-30 02:43 | 43.91170 | -1.06562 | 32928 ft | 423 kts | 214° |
| 2026-04-30 02:44 | 43.86449 | -1.11315 | 32930 ft | 422 kts | 214° |
| 2026-04-30 02:44 | 43.81672 | -1.16115 | 32933 ft | 422 kts | 214° |
| 2026-04-30 02:45 | 43.76907 | -1.20893 | 32933 ft | 423 kts | 214° |
| 2026-04-30 02:45 | 43.72176 | -1.25628 | 32939 ft | 422 kts | 214° |
| 2026-04-30 02:46 | 43.67433 | -1.30365 | 32923 ft | 421 kts | 214° |
| 2026-04-30 02:46 | 43.62685 | -1.35096 | 32922 ft | 421 kts | 214° |
| 2026-04-30 02:47 | 43.57964 | -1.39793 | 32928 ft | 421 kts | 214° |
| 2026-04-30 02:47 | 43.53226 | -1.44497 | 32943 ft | 420 kts | 214° |
| 2026-04-30 02:48 | 43.48557 | -1.49352 | 32943 ft | 421 kts | 219° |
| 2026-04-30 02:48 | 43.44575 | -1.55273 | 32944 ft | 425 kts | 230° |
| 2026-04-30 02:49 | 43.41163 | -1.61958 | 32949 ft | 426 kts | 234° |
| 2026-04-30 02:49 | 43.37916 | -1.68761 | 32939 ft | 427 kts | 233° |
| 2026-04-30 02:50 | 43.34663 | -1.75576 | 32947 ft | 427 kts | 233° |
| 2026-04-30 02:50 | 43.31380 | -1.82395 | 32942 ft | 427 kts | 233° |
| 2026-04-30 02:51 | 43.27980 | -1.88994 | 32951 ft | 425 kts | 230° |
| 2026-04-30 02:51 | 43.24388 | -1.95433 | 32926 ft | 425 kts | 229° |
| 2026-04-30 02:52 | 43.20770 | -2.01859 | 32930 ft | 426 kts | 229° |
| 2026-04-30 02:52 | 43.17173 | -2.08289 | 32938 ft | 425 kts | 230° |
| 2026-04-30 02:53 | 43.13589 | -2.14716 | 32927 ft | 429 kts | 230° |
| 2026-04-30 02:53 | 43.09971 | -2.21208 | 32946 ft | 426 kts | 230° |
| 2026-04-30 02:54 | 43.06374 | -2.27653 | 32937 ft | 428 kts | 230° |
| 2026-04-30 02:54 | 43.02774 | -2.34096 | 32942 ft | 425 kts | 230° |
| 2026-04-30 02:55 | 42.99195 | -2.40488 | 32958 ft | 428 kts | 231° |
| 2026-04-30 02:55 | 42.95571 | -2.46944 | 32957 ft | 426 kts | 230° |
| 2026-04-30 02:56 | 42.91998 | -2.53298 | 32964 ft | 427 kts | 231° |
| 2026-04-30 02:56 | 42.88367 | -2.59737 | 32963 ft | 427 kts | 231° |
| 2026-04-30 02:57 | 42.84746 | -2.66146 | 32973 ft | 428 kts | 230° |
| 2026-04-30 02:57 | 42.81122 | -2.72549 | 32979 ft | 427 kts | 230° |
| 2026-04-30 02:58 | 42.77506 | -2.78921 | 32972 ft | 427 kts | 231° |
| 2026-04-30 02:58 | 42.73871 | -2.85313 | 32987 ft | 428 kts | 231° |
| 2026-04-30 02:59 | 42.70270 | -2.91699 | 32989 ft | 426 kts | 232° |
| 2026-04-30 02:59 | 42.66703 | -2.98125 | 32999 ft | 427 kts | 232° |
| 2026-04-30 03:00 | 42.63112 | -3.04595 | 33002 ft | 427 kts | 232° |
| 2026-04-30 03:00 | 42.59522 | -3.11038 | 33008 ft | 428 kts | 232° |
| 2026-04-30 03:01 | 42.55942 | -3.17441 | 33012 ft | 429 kts | 232° |
| 2026-04-30 03:01 | 42.52343 | -3.23860 | 33016 ft | 428 kts | 233° |
| 2026-04-30 03:02 | 42.48719 | -3.30307 | 33014 ft | 428 kts | 233° |
| 2026-04-30 03:02 | 42.45119 | -3.36697 | 33011 ft | 427 kts | 233° |
| 2026-04-30 03:03 | 42.41533 | -3.43049 | 33017 ft | 427 kts | 233° |
| 2026-04-30 03:03 | 42.36106 | -3.52636 | 33014 ft | 427 kts | 233° |
| 2026-04-30 03:04 | 42.32489 | -3.59007 | 33023 ft | 427 kts | 234° |
| 2026-04-30 03:04 | 42.28886 | -3.65340 | 33015 ft | 427 kts | 233° |
| 2026-04-30 03:05 | 42.25263 | -3.71695 | 33018 ft | 427 kts | 233° |
| 2026-04-30 03:05 | 42.21653 | -3.78015 | 33016 ft | 427 kts | 234° |
| 2026-04-30 03:06 | 42.18028 | -3.84346 | 33015 ft | 428 kts | 234° |
| 2026-04-30 03:06 | 42.14400 | -3.90671 | 33008 ft | 428 kts | 234° |
| 2026-04-30 03:07 | 42.10748 | -3.97023 | 33005 ft | 428 kts | 234° |
| 2026-04-30 03:07 | 42.07104 | -4.03346 | 32998 ft | 428 kts | 234° |
| 2026-04-30 03:08 | 42.03418 | -4.09610 | 33008 ft | 430 kts | 232° |
| 2026-04-30 03:08 | 41.99177 | -4.15339 | 33009 ft | 431 kts | 225° |
| 2026-04-30 03:09 | 41.94658 | -4.20627 | 33002 ft | 434 kts | 224° |
| 2026-04-30 03:09 | 41.90067 | -4.25880 | 33002 ft | 433 kts | 224° |
| 2026-04-30 03:10 | 41.85512 | -4.31123 | 33007 ft | 431 kts | 224° |
| 2026-04-30 03:10 | 41.80975 | -4.36378 | 33013 ft | 432 kts | 225° |
| 2026-04-30 03:11 | 41.76450 | -4.41630 | 33005 ft | 432 kts | 225° |
| 2026-04-30 03:11 | 41.71907 | -4.46899 | 33010 ft | 431 kts | 225° |
| 2026-04-30 03:12 | 41.67392 | -4.52131 | 33008 ft | 432 kts | 225° |
| 2026-04-30 03:12 | 41.62845 | -4.57391 | 33006 ft | 432 kts | 225° |
| 2026-04-30 03:13 | 41.58300 | -4.62638 | 33006 ft | 432 kts | 225° |
| 2026-04-30 03:13 | 41.53743 | -4.67885 | 33005 ft | 432 kts | 224° |
| 2026-04-30 03:14 | 41.49193 | -4.73117 | 33002 ft | 432 kts | 224° |
| 2026-04-30 03:14 | 41.44655 | -4.78324 | 33012 ft | 431 kts | 224° |
| 2026-04-30 03:15 | 41.40134 | -4.83502 | 33011 ft | 431 kts | 224° |
| 2026-04-30 03:15 | 41.35567 | -4.88723 | 33014 ft | 432 kts | 224° |
| 2026-04-30 03:16 | 41.31014 | -4.93918 | 33015 ft | 431 kts | 224° |
| 2026-04-30 03:16 | 41.26487 | -4.99073 | 33012 ft | 432 kts | 224° |
| 2026-04-30 03:17 | 41.21929 | -5.04250 | 33011 ft | 430 kts | 224° |
| 2026-04-30 03:17 | 41.17382 | -5.09403 | 33012 ft | 430 kts | 224° |
| 2026-04-30 03:18 | 41.12830 | -5.14555 | 33011 ft | 429 kts | 224° |
| 2026-04-30 03:18 | 41.08282 | -5.19690 | 33012 ft | 429 kts | 224° |
| 2026-04-30 03:19 | 41.03748 | -5.24802 | 33013 ft | 428 kts | 224° |
| 2026-04-30 03:19 | 40.99224 | -5.29893 | 33018 ft | 428 kts | 224° |
| 2026-04-30 03:20 | 40.94679 | -5.34999 | 33016 ft | 428 kts | 224° |
| 2026-04-30 03:20 | 40.90185 | -5.40036 | 33023 ft | 425 kts | 224° |
| 2026-04-30 03:21 | 40.85672 | -5.45084 | 33025 ft | 424 kts | 224° |
| 2026-04-30 03:21 | 40.81156 | -5.50127 | 33017 ft | 423 kts | 225° |
| 2026-04-30 03:22 | 40.76666 | -5.55136 | 33019 ft | 424 kts | 225° |
| 2026-04-30 03:22 | 40.72168 | -5.60142 | 33018 ft | 422 kts | 225° |
| 2026-04-30 03:23 | 40.67701 | -5.65103 | 33018 ft | 422 kts | 224° |
| 2026-04-30 03:23 | 40.63206 | -5.70089 | 33023 ft | 423 kts | 224° |
| 2026-04-30 03:24 | 40.58724 | -5.75047 | 33015 ft | 420 kts | 224° |
| 2026-04-30 03:24 | 40.54242 | -5.79997 | 33012 ft | 420 kts | 224° |
| 2026-04-30 03:25 | 40.49777 | -5.84921 | 33015 ft | 420 kts | 224° |
| 2026-04-30 03:25 | 40.45313 | -5.89839 | 33017 ft | 418 kts | 224° |
| 2026-04-30 03:26 | 40.40860 | -5.94734 | 33018 ft | 417 kts | 225° |
| 2026-04-30 03:26 | 40.36414 | -5.99614 | 33020 ft | 418 kts | 224° |
| 2026-04-30 03:27 | 40.31978 | -6.04473 | 33018 ft | 414 kts | 225° |
| 2026-04-30 03:27 | 40.27557 | -6.09306 | 33022 ft | 415 kts | 225° |
| 2026-04-30 03:28 | 40.23100 | -6.14173 | 33020 ft | 415 kts | 225° |
| 2026-04-30 03:28 | 40.18681 | -6.18986 | 33022 ft | 414 kts | 225° |
| 2026-04-30 03:29 | 40.14249 | -6.23803 | 33024 ft | 413 kts | 225° |
| 2026-04-30 03:29 | 40.09816 | -6.28619 | 33016 ft | 415 kts | 225° |
| 2026-04-30 03:30 | 40.05392 | -6.33411 | 33024 ft | 410 kts | 225° |
| 2026-04-30 03:30 | 40.01001 | -6.38163 | 33024 ft | 412 kts | 225° |
| 2026-04-30 03:31 | 39.96592 | -6.42927 | 33025 ft | 411 kts | 225° |
| 2026-04-30 03:31 | 39.92195 | -6.47667 | 33025 ft | 413 kts | 225° |
| 2026-04-30 03:32 | 39.87770 | -6.52429 | 33023 ft | 412 kts | 225° |
| 2026-04-30 03:32 | 39.83363 | -6.57166 | 33024 ft | 413 kts | 225° |
| 2026-04-30 03:33 | 39.78897 | -6.61956 | 33022 ft | 413 kts | 225° |
| 2026-04-30 03:33 | 39.74466 | -6.66698 | 33022 ft | 413 kts | 224° |
| 2026-04-30 03:34 | 39.70044 | -6.71426 | 33022 ft | 414 kts | 224° |
| 2026-04-30 03:34 | 39.65592 | -6.76174 | 33020 ft | 415 kts | 224° |
| 2026-04-30 03:35 | 39.61114 | -6.80941 | 33020 ft | 414 kts | 224° |
| 2026-04-30 03:35 | 39.56662 | -6.85672 | 33019 ft | 414 kts | 223° |
| 2026-04-30 03:36 | 39.52217 | -6.90390 | 33020 ft | 415 kts | 223° |
| 2026-04-30 03:36 | 39.47774 | -6.95096 | 33017 ft | 414 kts | 223° |
| 2026-04-30 03:37 | 39.43306 | -6.99821 | 33017 ft | 415 kts | 223° |
| 2026-04-30 03:37 | 39.38824 | -7.04553 | 33017 ft | 415 kts | 223° |
| 2026-04-30 03:38 | 39.34369 | -7.09247 | 33015 ft | 414 kts | 223° |
| 2026-04-30 03:38 | 39.29883 | -7.13966 | 33014 ft | 416 kts | 223° |
| 2026-04-30 03:39 | 39.25404 | -7.18640 | 33017 ft | 416 kts | 221° |
| 2026-04-30 03:39 | 39.20481 | -7.22618 | 33019 ft | 423 kts | 208° |
| 2026-04-30 03:40 | 39.14832 | -7.25092 | 33016 ft | 428 kts | 200° |
| 2026-04-30 03:40 | 39.09058 | -7.27053 | 33018 ft | 430 kts | 199° |
| 2026-04-30 03:41 | 39.03272 | -7.28967 | 33016 ft | 429 kts | 200° |
| 2026-04-30 03:41 | 38.97513 | -7.30914 | 33017 ft | 429 kts | 200° |
| 2026-04-30 03:42 | 38.91727 | -7.32906 | 33019 ft | 428 kts | 200° |
| 2026-04-30 03:42 | 38.85980 | -7.34898 | 33021 ft | 428 kts | 200° |
| 2026-04-30 03:43 | 38.80234 | -7.36893 | 33022 ft | 427 kts | 200° |
| 2026-04-30 03:43 | 38.74523 | -7.38875 | 33025 ft | 427 kts | 199° |
| 2026-04-30 03:44 | 38.68777 | -7.40866 | 33024 ft | 427 kts | 200° |
| 2026-04-30 03:44 | 38.63017 | -7.42859 | 33024 ft | 428 kts | 200° |
| 2026-04-30 03:45 | 38.57268 | -7.44845 | 33026 ft | 428 kts | 199° |
| 2026-04-30 03:45 | 38.51533 | -7.46821 | 33025 ft | 427 kts | 199° |
| 2026-04-30 03:46 | 38.45799 | -7.48794 | 33028 ft | 427 kts | 199° |
| 2026-04-30 03:46 | 38.40043 | -7.50772 | 33027 ft | 427 kts | 199° |
| 2026-04-30 03:47 | 38.34332 | -7.52731 | 33029 ft | 426 kts | 199° |
| 2026-04-30 03:47 | 38.28587 | -7.54698 | 33028 ft | 426 kts | 199° |
| 2026-04-30 03:48 | 38.22875 | -7.56651 | 33031 ft | 427 kts | 199° |
| 2026-04-30 03:48 | 38.17131 | -7.58612 | 33030 ft | 426 kts | 199° |
| 2026-04-30 03:49 | 38.11399 | -7.60565 | 33033 ft | 426 kts | 199° |
| 2026-04-30 03:49 | 38.05673 | -7.62514 | 33034 ft | 426 kts | 199° |
| 2026-04-30 03:50 | 37.99951 | -7.64459 | 33034 ft | 425 kts | 199° |
| 2026-04-30 03:50 | 37.94215 | -7.66406 | 33030 ft | 425 kts | 198° |
| 2026-04-30 03:51 | 37.88504 | -7.68340 | 33030 ft | 426 kts | 198° |
| 2026-04-30 03:51 | 37.82790 | -7.70274 | 33031 ft | 425 kts | 198° |
| 2026-04-30 03:52 | 37.77055 | -7.72211 | 33032 ft | 425 kts | 198° |
| 2026-04-30 03:52 | 37.71377 | -7.74126 | 33030 ft | 425 kts | 198° |
| 2026-04-30 03:53 | 37.65642 | -7.76058 | 33027 ft | 425 kts | 198° |
| 2026-04-30 03:53 | 37.59938 | -7.77975 | 33025 ft | 426 kts | 197° |
| 2026-04-30 03:54 | 37.54203 | -7.79900 | 33027 ft | 426 kts | 197° |
| 2026-04-30 03:54 | 37.48481 | -7.81818 | 33028 ft | 426 kts | 197° |
| 2026-04-30 03:55 | 37.42740 | -7.83737 | 33025 ft | 425 kts | 197° |
| 2026-04-30 03:55 | 37.37030 | -7.85644 | 33023 ft | 425 kts | 197° |
| 2026-04-30 03:56 | 37.31294 | -7.87555 | 33017 ft | 425 kts | 197° |
| 2026-04-30 03:56 | 37.25557 | -7.89464 | 33018 ft | 425 kts | 197° |
| 2026-04-30 03:57 | 37.19810 | -7.91373 | 33022 ft | 426 kts | 197° |
| 2026-04-30 03:57 | 37.14103 | -7.93266 | 33022 ft | 426 kts | 197° |
| 2026-04-30 03:58 | 37.08344 | -7.95174 | 33023 ft | 427 kts | 197° |
| 2026-04-30 03:58 | 37.02586 | -7.97078 | 33019 ft | 427 kts | 196° |
| 2026-04-30 03:59 | 36.96846 | -7.98968 | 33020 ft | 426 kts | 196° |
| 2026-04-30 03:59 | 36.91119 | -8.00845 | 33019 ft | 425 kts | 196° |
| 2026-04-30 04:00 | 36.85410 | -8.02712 | 33016 ft | 425 kts | 196° |
| 2026-04-30 04:00 | 36.79676 | -8.04586 | 33016 ft | 425 kts | 196° |
| 2026-04-30 04:01 | 36.73918 | -8.06465 | 33014 ft | 426 kts | 196° |
| 2026-04-30 04:01 | 36.68203 | -8.08328 | 33010 ft | 427 kts | 196° |
| 2026-04-30 04:02 | 36.62449 | -8.10200 | 33009 ft | 426 kts | 196° |
| 2026-04-30 04:02 | 36.56720 | -8.12062 | 33008 ft | 426 kts | 196° |
| 2026-04-30 04:03 | 36.50976 | -8.13925 | 33009 ft | 426 kts | 196° |
| 2026-04-30 04:03 | 36.45231 | -8.15785 | 33007 ft | 426 kts | 196° |
| 2026-04-30 04:04 | 36.39504 | -8.17637 | 33008 ft | 426 kts | 196° |
| 2026-04-30 04:04 | 36.33779 | -8.19485 | 33008 ft | 426 kts | 196° |
| 2026-04-30 04:05 | 36.28022 | -8.21341 | 33008 ft | 426 kts | 195° |
| 2026-04-30 04:05 | 36.22281 | -8.23189 | 33008 ft | 426 kts | 195° |
| 2026-04-30 04:06 | 36.16538 | -8.25035 | 33008 ft | 426 kts | 195° |
| 2026-04-30 04:06 | 36.10818 | -8.26871 | 33008 ft | 427 kts | 195° |
| 2026-04-30 04:07 | 36.05184 | -8.28676 | 33008 ft | 426 kts | 195° |
| 2026-04-30 04:08 | 36.00262 | -8.30252 | 33009 ft | 426 kts | 195° |
| 2026-04-30 04:08 | 35.95361 | -8.31818 | 33010 ft | 426 kts | 195° |
| 2026-04-30 04:09 | 35.89624 | -8.33643 | 33010 ft | 426 kts | 195° |
| 2026-04-30 04:09 | 35.83894 | -8.35460 | 33011 ft | 426 kts | 195° |
| 2026-04-30 04:10 | 35.78144 | -8.37281 | 33013 ft | 426 kts | 195° |
| 2026-04-30 04:10 | 35.72560 | -8.39047 | 33014 ft | 425 kts | 195° |
| 2026-04-30 04:11 | 35.66822 | -8.40860 | 33015 ft | 426 kts | 195° |
| 2026-04-30 04:11 | 35.61083 | -8.42671 | 33018 ft | 426 kts | 195° |
| 2026-04-30 04:12 | 35.55348 | -8.44478 | 33023 ft | 425 kts | 195° |
| 2026-04-30 04:12 | 35.49594 | -8.46288 | 33020 ft | 425 kts | 195° |
| 2026-04-30 04:13 | 35.43888 | -8.48080 | 33017 ft | 425 kts | 195° |
| 2026-04-30 04:13 | 35.38148 | -8.49880 | 33014 ft | 425 kts | 195° |
| 2026-04-30 04:14 | 35.32415 | -8.51676 | 33015 ft | 426 kts | 195° |
| 2026-04-30 04:14 | 35.26678 | -8.53470 | 33014 ft | 425 kts | 195° |
| 2026-04-30 04:15 | 35.20943 | -8.55260 | 33010 ft | 425 kts | 195° |
| 2026-04-30 04:15 | 35.15194 | -8.57052 | 33008 ft | 426 kts | 195° |
| 2026-04-30 04:16 | 35.09482 | -8.58831 | 33008 ft | 425 kts | 195° |
| 2026-04-30 04:16 | 35.03730 | -8.60619 | 33008 ft | 425 kts | 195° |
| 2026-04-30 04:17 | 34.98002 | -8.62398 | 33009 ft | 425 kts | 195° |
| 2026-04-30 04:17 | 34.92289 | -8.64169 | 33008 ft | 425 kts | 195° |
| 2026-04-30 04:18 | 34.86551 | -8.65945 | 33010 ft | 425 kts | 194° |
| 2026-04-30 04:18 | 34.80821 | -8.67716 | 33009 ft | 424 kts | 194° |
| 2026-04-30 04:19 | 34.75087 | -8.69486 | 33009 ft | 424 kts | 194° |
| 2026-04-30 04:19 | 34.69407 | -8.71237 | 33008 ft | 422 kts | 194° |
| 2026-04-30 04:20 | 34.63685 | -8.72998 | 33009 ft | 423 kts | 194° |
| 2026-04-30 04:20 | 34.57980 | -8.74751 | 33009 ft | 423 kts | 194° |
| 2026-04-30 04:21 | 34.52288 | -8.76498 | 33009 ft | 422 kts | 194° |
| 2026-04-30 04:21 | 34.46623 | -8.78431 | 33011 ft | 421 kts | 200° |
| 2026-04-30 04:22 | 34.41478 | -8.81715 | 33021 ft | 422 kts | 213° |
| 2026-04-30 04:22 | 34.36756 | -8.86000 | 33021 ft | 421 kts | 217° |
| 2026-04-30 04:23 | 34.32215 | -8.90452 | 33018 ft | 423 kts | 218° |
| 2026-04-30 04:23 | 34.27657 | -8.94922 | 33014 ft | 422 kts | 218° |
| 2026-04-30 04:24 | 34.23060 | -8.99380 | 33014 ft | 422 kts | 217° |
| 2026-04-30 04:24 | 34.18479 | -9.03785 | 33015 ft | 422 kts | 217° |
| 2026-04-30 04:25 | 34.13886 | -9.08180 | 33013 ft | 422 kts | 218° |
| 2026-04-30 04:25 | 34.09275 | -9.12580 | 33012 ft | 421 kts | 218° |
| 2026-04-30 04:26 | 34.04675 | -9.16961 | 33012 ft | 421 kts | 217° |
| 2026-04-30 04:26 | 34.00094 | -9.21319 | 33017 ft | 423 kts | 217° |
| 2026-04-30 04:27 | 33.95457 | -9.25722 | 33016 ft | 421 kts | 218° |
| 2026-04-30 04:27 | 33.90842 | -9.30099 | 33020 ft | 422 kts | 218° |
| 2026-04-30 04:28 | 33.86253 | -9.34446 | 33023 ft | 418 kts | 218° |
| 2026-04-30 04:28 | 33.81673 | -9.38778 | 33028 ft | 420 kts | 218° |
| 2026-04-30 04:29 | 33.77094 | -9.43106 | 33028 ft | 419 kts | 218° |
| 2026-04-30 04:29 | 33.72517 | -9.47423 | 33032 ft | 418 kts | 218° |
| 2026-04-30 04:30 | 33.67952 | -9.51725 | 33031 ft | 417 kts | 218° |
| 2026-04-30 04:30 | 33.63385 | -9.56020 | 33029 ft | 417 kts | 218° |
| 2026-04-30 04:31 | 33.58810 | -9.60316 | 33030 ft | 418 kts | 218° |
| 2026-04-30 04:31 | 33.54228 | -9.64611 | 33028 ft | 416 kts | 218° |
| 2026-04-30 04:32 | 33.49690 | -9.68858 | 33031 ft | 416 kts | 218° |
| 2026-04-30 04:32 | 33.45140 | -9.73110 | 33029 ft | 415 kts | 217° |
| 2026-04-30 04:33 | 33.40566 | -9.77381 | 33030 ft | 416 kts | 218° |
| 2026-04-30 04:33 | 33.36020 | -9.81620 | 33031 ft | 413 kts | 218° |
| 2026-04-30 04:34 | 33.31505 | -9.85826 | 33026 ft | 413 kts | 218° |
| 2026-04-30 04:34 | 33.26973 | -9.90041 | 33029 ft | 412 kts | 218° |
| 2026-04-30 04:35 | 33.22445 | -9.94247 | 33029 ft | 412 kts | 218° |
| 2026-04-30 04:35 | 33.17927 | -9.98437 | 33031 ft | 412 kts | 218° |
| 2026-04-30 04:36 | 33.13381 | -10.02647 | 33029 ft | 411 kts | 218° |
| 2026-04-30 04:36 | 33.08864 | -10.06826 | 33032 ft | 412 kts | 218° |
| 2026-04-30 04:37 | 33.04360 | -10.10987 | 33032 ft | 411 kts | 218° |
| 2026-04-30 04:37 | 32.99817 | -10.15179 | 33029 ft | 413 kts | 218° |
| 2026-04-30 04:38 | 32.95271 | -10.19362 | 33028 ft | 412 kts | 218° |
| 2026-04-30 04:38 | 32.90736 | -10.23528 | 33028 ft | 411 kts | 218° |
| 2026-04-30 04:39 | 32.86220 | -10.27672 | 33029 ft | 410 kts | 218° |
| 2026-04-30 04:39 | 32.81713 | -10.31803 | 33029 ft | 412 kts | 218° |
| 2026-04-30 04:40 | 32.77155 | -10.35976 | 33028 ft | 411 kts | 218° |
| 2026-04-30 04:40 | 32.72631 | -10.40111 | 33029 ft | 411 kts | 218° |
| 2026-04-30 04:41 | 32.68112 | -10.44237 | 33030 ft | 411 kts | 218° |
| 2026-04-30 04:41 | 32.63547 | -10.48398 | 33029 ft | 413 kts | 218° |
| 2026-04-30 04:42 | 32.59003 | -10.52536 | 33030 ft | 414 kts | 218° |
| 2026-04-30 04:42 | 32.54442 | -10.56682 | 33029 ft | 414 kts | 218° |
| 2026-04-30 04:43 | 32.49863 | -10.60839 | 33029 ft | 414 kts | 218° |
| 2026-04-30 04:43 | 32.45306 | -10.64972 | 33029 ft | 415 kts | 218° |
| 2026-04-30 04:44 | 32.40725 | -10.69122 | 33029 ft | 415 kts | 218° |
| 2026-04-30 04:44 | 32.36136 | -10.73272 | 33027 ft | 416 kts | 218° |
| 2026-04-30 04:45 | 32.31531 | -10.77432 | 33030 ft | 414 kts | 218° |
| 2026-04-30 04:45 | 32.26948 | -10.81567 | 33029 ft | 416 kts | 218° |
| 2026-04-30 04:46 | 32.22329 | -10.85728 | 33029 ft | 419 kts | 218° |
| 2026-04-30 04:46 | 32.17720 | -10.89874 | 33027 ft | 416 kts | 218° |
| 2026-04-30 04:47 | 32.13112 | -10.94015 | 33028 ft | 419 kts | 218° |
| 2026-04-30 04:47 | 32.08476 | -10.98176 | 33031 ft | 418 kts | 218° |
| 2026-04-30 04:48 | 32.03833 | -11.02339 | 33025 ft | 418 kts | 218° |
| 2026-04-30 04:48 | 31.99193 | -11.06494 | 33029 ft | 418 kts | 218° |
| 2026-04-30 04:49 | 31.94579 | -11.10620 | 33027 ft | 419 kts | 218° |
| 2026-04-30 04:49 | 31.89921 | -11.14779 | 33033 ft | 418 kts | 218° |
| 2026-04-30 04:50 | 31.85305 | -11.18895 | 33030 ft | 418 kts | 218° |
| 2026-04-30 04:50 | 31.80681 | -11.23012 | 33028 ft | 417 kts | 218° |
| 2026-04-30 04:51 | 31.76062 | -11.27120 | 33031 ft | 416 kts | 218° |
| 2026-04-30 04:51 | 31.71437 | -11.31237 | 33030 ft | 418 kts | 218° |
| 2026-04-30 04:52 | 31.66805 | -11.35367 | 33029 ft | 415 kts | 218° |
| 2026-04-30 04:52 | 31.62200 | -11.39470 | 33031 ft | 415 kts | 218° |
| 2026-04-30 04:53 | 31.57633 | -11.43531 | 33029 ft | 415 kts | 218° |
| 2026-04-30 04:53 | 31.53018 | -11.47630 | 33033 ft | 416 kts | 218° |
| 2026-04-30 04:54 | 31.48416 | -11.51712 | 33027 ft | 416 kts | 218° |
| 2026-04-30 04:54 | 31.43800 | -11.55800 | 33030 ft | 416 kts | 218° |
| 2026-04-30 04:55 | 31.39195 | -11.59876 | 33033 ft | 415 kts | 218° |
| 2026-04-30 04:55 | 31.34569 | -11.63963 | 33029 ft | 416 kts | 218° |
| 2026-04-30 04:56 | 31.29954 | -11.68036 | 33028 ft | 416 kts | 217° |
| 2026-04-30 04:56 | 31.25331 | -11.72111 | 33030 ft | 416 kts | 217° |
| 2026-04-30 04:57 | 31.20691 | -11.76195 | 33030 ft | 417 kts | 217° |
| 2026-04-30 04:57 | 31.16083 | -11.80246 | 33030 ft | 416 kts | 217° |
| 2026-04-30 04:58 | 31.11455 | -11.84310 | 33032 ft | 416 kts | 217° |
| 2026-04-30 04:58 | 31.06814 | -11.88380 | 33031 ft | 418 kts | 217° |
| 2026-04-30 04:59 | 31.02161 | -11.92457 | 33030 ft | 419 kts | 217° |
| 2026-04-30 04:59 | 30.97524 | -11.96514 | 33028 ft | 416 kts | 217° |
| 2026-04-30 05:00 | 30.92891 | -12.00562 | 33029 ft | 417 kts | 217° |
| 2026-04-30 05:00 | 30.88231 | -12.04627 | 33028 ft | 416 kts | 217° |
| 2026-04-30 05:01 | 30.83604 | -12.08660 | 33029 ft | 418 kts | 217° |
| 2026-04-30 05:01 | 30.78941 | -12.12720 | 33028 ft | 417 kts | 217° |
| 2026-04-30 05:02 | 30.74290 | -12.16763 | 33029 ft | 417 kts | 217° |
| 2026-04-30 05:02 | 30.69638 | -12.20802 | 33030 ft | 418 kts | 217° |
| 2026-04-30 05:03 | 30.64976 | -12.24846 | 33030 ft | 418 kts | 217° |
| 2026-04-30 05:03 | 30.60309 | -12.28889 | 33035 ft | 418 kts | 217° |
| 2026-04-30 05:04 | 30.55664 | -12.32908 | 33034 ft | 417 kts | 217° |
| 2026-04-30 05:04 | 30.51008 | -12.36933 | 33033 ft | 419 kts | 217° |
| 2026-04-30 05:05 | 30.46292 | -12.40997 | 33037 ft | 420 kts | 217° |
| 2026-04-30 05:05 | 30.41618 | -12.45011 | 33042 ft | 420 kts | 217° |
| 2026-04-30 05:06 | 30.34573 | -12.51051 | 33041 ft | 419 kts | 217° |
| 2026-04-30 05:06 | 30.29875 | -12.55074 | 33044 ft | 422 kts | 217° |
| 2026-04-30 05:07 | 30.25160 | -12.59108 | 33041 ft | 420 kts | 217° |
| 2026-04-30 05:07 | 30.20440 | -12.63142 | 33046 ft | 423 kts | 217° |
| 2026-04-30 05:08 | 30.15714 | -12.67175 | 33042 ft | 423 kts | 217° |
| 2026-04-30 05:08 | 30.10987 | -12.71204 | 33041 ft | 423 kts | 217° |
| 2026-04-30 05:09 | 30.06333 | -12.75365 | 33045 ft | 424 kts | 219° |
| 2026-04-30 05:09 | 30.01798 | -12.79675 | 33043 ft | 424 kts | 220° |
| 2026-04-30 05:10 | 29.97250 | -12.84016 | 33044 ft | 426 kts | 220° |
| 2026-04-30 05:10 | 29.92668 | -12.88358 | 33044 ft | 425 kts | 220° |
| 2026-04-30 05:11 | 29.88084 | -12.92675 | 33043 ft | 425 kts | 220° |
| 2026-04-30 05:11 | 29.83519 | -12.96956 | 33042 ft | 425 kts | 220° |
| 2026-04-30 05:12 | 29.78900 | -13.01279 | 33043 ft | 426 kts | 220° |
| 2026-04-30 05:12 | 29.74327 | -13.05552 | 33047 ft | 427 kts | 220° |
| 2026-04-30 05:13 | 29.69698 | -13.09872 | 33048 ft | 427 kts | 220° |
| 2026-04-30 05:13 | 29.65080 | -13.14176 | 33048 ft | 427 kts | 220° |
| 2026-04-30 05:14 | 29.60462 | -13.18476 | 33045 ft | 428 kts | 220° |
| 2026-04-30 05:14 | 29.55868 | -13.22748 | 33045 ft | 427 kts | 220° |
| 2026-04-30 05:15 | 29.51226 | -13.27060 | 33046 ft | 427 kts | 220° |
| 2026-04-30 05:15 | 29.46638 | -13.31316 | 33045 ft | 427 kts | 220° |
| 2026-04-30 05:16 | 29.41990 | -13.35623 | 33041 ft | 427 kts | 220° |
| 2026-04-30 05:16 | 29.37381 | -13.39889 | 33041 ft | 428 kts | 221° |
| 2026-04-30 05:17 | 29.32711 | -13.44206 | 33042 ft | 429 kts | 221° |
| 2026-04-30 05:17 | 29.28062 | -13.48500 | 33043 ft | 430 kts | 221° |
| 2026-04-30 05:18 | 29.23406 | -13.52791 | 33042 ft | 429 kts | 221° |
| 2026-04-30 05:18 | 29.18757 | -13.57073 | 33040 ft | 429 kts | 221° |
| 2026-04-30 05:19 | 29.14107 | -13.61351 | 33036 ft | 430 kts | 221° |
| 2026-04-30 05:19 | 29.09452 | -13.65629 | 33036 ft | 430 kts | 221° |
| 2026-04-30 05:20 | 29.04789 | -13.69910 | 33033 ft | 431 kts | 221° |
| 2026-04-30 05:20 | 29.00097 | -13.74213 | 33034 ft | 432 kts | 221° |
| 2026-04-30 05:21 | 28.95400 | -13.78513 | 33032 ft | 432 kts | 221° |
| 2026-04-30 05:21 | 28.90694 | -13.82815 | 33031 ft | 432 kts | 221° |
| 2026-04-30 05:22 | 28.86002 | -13.87099 | 33029 ft | 432 kts | 221° |
| 2026-04-30 05:22 | 28.81338 | -13.91354 | 33025 ft | 432 kts | 221° |
| 2026-04-30 05:23 | 28.76633 | -13.95641 | 33026 ft | 432 kts | 221° |
| 2026-04-30 05:23 | 28.71908 | -13.99939 | 33029 ft | 432 kts | 222° |
| 2026-04-30 05:24 | 28.67218 | -14.04203 | 33031 ft | 432 kts | 222° |
| 2026-04-30 05:24 | 28.62504 | -14.08485 | 33028 ft | 434 kts | 222° |
| 2026-04-30 05:25 | 28.57755 | -14.12792 | 33028 ft | 436 kts | 223° |
| 2026-04-30 05:25 | 28.53016 | -14.17086 | 33029 ft | 435 kts | 223° |
| 2026-04-30 05:26 | 28.48256 | -14.21389 | 33029 ft | 437 kts | 223° |
| 2026-04-30 05:26 | 28.43518 | -14.25667 | 33026 ft | 435 kts | 223° |
| 2026-04-30 05:27 | 28.38767 | -14.29957 | 33027 ft | 438 kts | 224° |
| 2026-04-30 05:27 | 28.33974 | -14.34277 | 33026 ft | 436 kts | 224° |
| 2026-04-30 05:28 | 28.29221 | -14.38556 | 33026 ft | 440 kts | 224° |
| 2026-04-30 05:28 | 28.24443 | -14.42856 | 33029 ft | 440 kts | 224° |
| 2026-04-30 05:29 | 28.19620 | -14.47186 | 33026 ft | 442 kts | 225° |
| 2026-04-30 05:29 | 28.14795 | -14.51516 | 33026 ft | 445 kts | 225° |
| 2026-04-30 05:30 | 28.09920 | -14.55884 | 33027 ft | 443 kts | 225° |
| 2026-04-30 05:30 | 28.05089 | -14.60225 | 33025 ft | 444 kts | 227° |
| 2026-04-30 05:31 | 28.01025 | -14.65294 | 33026 ft | 428 kts | 244° |
| 2026-04-30 05:31 | 27.98588 | -14.71303 | 33028 ft | 419 kts | 258° |
| 2026-04-30 05:32 | 27.97046 | -14.77627 | 33027 ft | 416 kts | 263° |
| 2026-04-30 05:32 | 27.95713 | -14.84023 | 33026 ft | 418 kts | 263° |
| 2026-04-30 05:33 | 27.94394 | -14.90346 | 33027 ft | 416 kts | 264° |
| 2026-04-30 05:33 | 27.93051 | -14.96653 | 33028 ft | 416 kts | 264° |
| 2026-04-30 05:34 | 27.91672 | -15.03062 | 33027 ft | 418 kts | 264° |
| 2026-04-30 05:34 | 27.90300 | -15.09351 | 33030 ft | 416 kts | 264° |
| 2026-04-30 05:35 | 27.88899 | -15.15750 | 33030 ft | 417 kts | 264° |
| 2026-04-30 05:35 | 27.87508 | -15.22068 | 33033 ft | 414 kts | 265° |
| 2026-04-30 05:36 | 27.86119 | -15.28375 | 33034 ft | 417 kts | 264° |
| 2026-04-30 05:36 | 27.84717 | -15.34736 | 33035 ft | 412 kts | 264° |
| 2026-04-30 05:37 | 27.84028 | -15.37871 | 32789 ft | 409 kts | 265° |
| 2026-04-30 05:37 | 27.83462 | -15.40981 | 32355 ft | 400 kts | 269° |
| 2026-04-30 05:37 | 27.83172 | -15.44048 | 31779 ft | 392 kts | 275° |
| 2026-04-30 05:37 | 27.83176 | -15.47106 | 31157 ft | 386 kts | 279° |
| 2026-04-30 05:38 | 27.83352 | -15.50068 | 30690 ft | 379 kts | 281° |
| 2026-04-30 05:38 | 27.83602 | -15.53016 | 30167 ft | 375 kts | 282° |
| 2026-04-30 05:38 | 27.83878 | -15.55932 | 29631 ft | 372 kts | 282° |
| 2026-04-30 05:38 | 27.84155 | -15.58837 | 29105 ft | 369 kts | 282° |
| 2026-04-30 05:39 | 27.84426 | -15.61707 | 28582 ft | 366 kts | 282° |
| 2026-04-30 05:39 | 27.84686 | -15.64536 | 28055 ft | 363 kts | 282° |
| 2026-04-30 05:39 | 27.84939 | -15.67353 | 27533 ft | 361 kts | 281° |
| 2026-04-30 05:39 | 27.85189 | -15.70163 | 27021 ft | 358 kts | 281° |
| 2026-04-30 05:40 | 27.85434 | -15.72956 | 26499 ft | 356 kts | 281° |
| 2026-04-30 05:40 | 27.85673 | -15.75724 | 25980 ft | 354 kts | 281° |
| 2026-04-30 05:40 | 27.85911 | -15.78496 | 25461 ft | 352 kts | 280° |
| 2026-04-30 05:40 | 27.86145 | -15.81227 | 24949 ft | 350 kts | 280° |
| 2026-04-30 05:41 | 27.86375 | -15.83921 | 24442 ft | 348 kts | 280° |
| 2026-04-30 05:41 | 27.86606 | -15.86631 | 23929 ft | 346 kts | 280° |
| 2026-04-30 05:41 | 27.86835 | -15.89330 | 23415 ft | 344 kts | 279° |
| 2026-04-30 05:41 | 27.87064 | -15.92024 | 22907 ft | 342 kts | 279° |
| 2026-04-30 05:42 | 27.87287 | -15.94669 | 22411 ft | 340 kts | 279° |
| 2026-04-30 05:42 | 27.87511 | -15.97324 | 21903 ft | 338 kts | 279° |
| 2026-04-30 05:42 | 27.87733 | -15.99972 | 21394 ft | 337 kts | 279° |
| 2026-04-30 05:42 | 27.87951 | -16.02571 | 20901 ft | 335 kts | 278° |
| 2026-04-30 05:43 | 27.88167 | -16.05181 | 20398 ft | 333 kts | 279° |
| 2026-04-30 05:43 | 27.88383 | -16.07770 | 19900 ft | 331 kts | 278° |
| 2026-04-30 05:43 | 27.88599 | -16.10363 | 19402 ft | 330 kts | 278° |
| 2026-04-30 05:43 | 27.88813 | -16.12936 | 18904 ft | 328 kts | 278° |
| 2026-04-30 05:44 | 27.89024 | -16.15474 | 18411 ft | 326 kts | 278° |
| 2026-04-30 05:44 | 27.89235 | -16.18032 | 17914 ft | 324 kts | 277° |
| 2026-04-30 05:44 | 27.89441 | -16.20557 | 17469 ft | 321 kts | 278° |
| 2026-04-30 05:44 | 27.89643 | -16.23039 | 17198 ft | 312 kts | 277° |
| 2026-04-30 05:45 | 27.89747 | -16.25454 | 17027 ft | 302 kts | 272° |
| 2026-04-30 05:45 | 27.89495 | -16.27773 | 16723 ft | 299 kts | 259° |
| 2026-04-30 05:45 | 27.88835 | -16.29995 | 16307 ft | 300 kts | 252° |
| 2026-04-30 05:45 | 27.88019 | -16.32157 | 15905 ft | 299 kts | 250° |
| 2026-04-30 05:46 | 27.87169 | -16.34301 | 15510 ft | 296 kts | 250° |
| 2026-04-30 05:46 | 27.86336 | -16.36432 | 15118 ft | 294 kts | 250° |
| 2026-04-30 05:46 | 27.85532 | -16.38534 | 14637 ft | 294 kts | 250° |
| 2026-04-30 05:46 | 27.84737 | -16.40648 | 14067 ft | 294 kts | 250° |
| 2026-04-30 05:47 | 27.83940 | -16.42779 | 13557 ft | 292 kts | 250° |
| 2026-04-30 05:47 | 27.83149 | -16.44893 | 13004 ft | 292 kts | 250° |
| 2026-04-30 05:47 | 27.82357 | -16.47005 | 12491 ft | 290 kts | 250° |
| 2026-04-30 05:47 | 27.81573 | -16.49093 | 11998 ft | 288 kts | 250° |
| 2026-04-30 05:48 | 27.80802 | -16.51142 | 11498 ft | 287 kts | 250° |
| 2026-04-30 05:48 | 27.80026 | -16.53210 | 10982 ft | 286 kts | 249° |
| 2026-04-30 05:48 | 27.79252 | -16.55268 | 10590 ft | 281 kts | 250° |
| 2026-04-30 05:48 | 27.78497 | -16.57275 | 10200 ft | 280 kts | 250° |
| 2026-04-30 05:49 | 27.77743 | -16.59276 | 9978 ft | 272 kts | 249° |
| 2026-04-30 05:49 | 27.77001 | -16.61246 | 9678 ft | 269 kts | 250° |
| 2026-04-30 05:49 | 27.76270 | -16.63188 | 9323 ft | 268 kts | 250° |
| 2026-04-30 05:49 | 27.75553 | -16.65095 | 8989 ft | 266 kts | 249° |
| 2026-04-30 05:50 | 27.74843 | -16.67017 | 8761 ft | 259 kts | 252° |
| 2026-04-30 05:50 | 27.74426 | -16.68941 | 8673 ft | 245 kts | 270° |
| 2026-04-30 05:50 | 27.74741 | -16.70766 | 8498 ft | 235 kts | 298° |
| 2026-04-30 05:50 | 27.75730 | -16.72211 | 8224 ft | 231 kts | 317° |
| 2026-04-30 05:51 | 27.76921 | -16.73422 | 7951 ft | 229 kts | 317° |
| 2026-04-30 05:51 | 27.78091 | -16.74637 | 7687 ft | 227 kts | 317° |
| 2026-04-30 05:51 | 27.79228 | -16.75842 | 7429 ft | 225 kts | 317° |
| 2026-04-30 05:51 | 27.80370 | -16.77050 | 7172 ft | 222 kts | 317° |
| 2026-04-30 05:52 | 27.81499 | -16.78240 | 6916 ft | 220 kts | 317° |
| 2026-04-30 05:52 | 27.82633 | -16.79433 | 6673 ft | 225 kts | 318° |
| 2026-04-30 05:52 | 27.83805 | -16.80664 | 6400 ft | 237 kts | 318° |
| 2026-04-30 05:52 | 27.85027 | -16.81948 | 6069 ft | 237 kts | 319° |
| 2026-04-30 05:53 | 27.86296 | -16.83110 | 5787 ft | 234 kts | 330° |
| 2026-04-30 05:53 | 27.87746 | -16.83902 | 5535 ft | 230 kts | 339° |
| 2026-04-30 05:53 | 27.89229 | -16.84535 | 5285 ft | 224 kts | 340° |
| 2026-04-30 05:53 | 27.90687 | -16.85131 | 5019 ft | 217 kts | 344° |
| 2026-04-30 05:54 | 27.92156 | -16.85355 | 4775 ft | 210 kts | 6° |
| 2026-04-30 05:54 | 27.93481 | -16.84846 | 4645 ft | 198 kts | 31° |
| 2026-04-30 05:54 | 27.94551 | -16.83884 | 4430 ft | 193 kts | 45° |
| 2026-04-30 05:54 | 27.95347 | -16.82698 | 4224 ft | 188 kts | 58° |
| 2026-04-30 05:55 | 27.95918 | -16.81396 | 4017 ft | 183 kts | 64° |
| 2026-04-30 05:55 | 27.96405 | -16.80088 | 3825 ft | 179 kts | 66° |
| 2026-04-30 05:55 | 27.96874 | -16.78776 | 3704 ft | 177 kts | 66° |
| 2026-04-30 05:55 | 27.97335 | -16.77479 | 3555 ft | 180 kts | 66° |
| 2026-04-30 05:56 | 27.97795 | -16.76173 | 3444 ft | 175 kts | 66° |
| 2026-04-30 05:56 | 27.98252 | -16.74876 | 3294 ft | 180 kts | 66° |
| 2026-04-30 05:56 | 27.98704 | -16.73591 | 3010 ft | 170 kts | 66° |
| 2026-04-30 05:56 | 27.99136 | -16.72363 | 2768 ft | 166 kts | 67° |
| 2026-04-30 05:57 | 27.99568 | -16.71138 | 2563 ft | 164 kts | 66° |
| 2026-04-30 05:57 | 27.99980 | -16.69966 | 2314 ft | 157 kts | 66° |
| 2026-04-30 05:57 | 28.00367 | -16.68864 | 2107 ft | 149 kts | 66° |
| 2026-04-30 05:57 | 28.00752 | -16.67774 | 1953 ft | 151 kts | 67° |
| 2026-04-30 05:58 | 28.01135 | -16.66684 | 1708 ft | 148 kts | 66° |
| 2026-04-30 05:58 | 28.01513 | -16.65603 | 1522 ft | 148 kts | 66° |
| 2026-04-30 05:58 | 28.01895 | -16.64515 | 1323 ft | 148 kts | 66° |
| 2026-04-30 05:58 | 28.02277 | -16.63431 | 1123 ft | 148 kts | 66° |
| 2026-04-30 05:59 | 28.02660 | -16.62336 | 918 ft | 149 kts | 66° |
| 2026-04-30 05:59 | 28.03035 | -16.61245 | 728 ft | 149 kts | 67° |
| 2026-04-30 05:59 | 28.03415 | -16.60161 | 558 ft | 147 kts | 66° |
| 2026-04-30 05:59 | 28.03805 | -16.59095 | 343 ft | 148 kts | 66° |
| 2026-04-30 06:00 | 28.04180 | -16.57996 | 227 ft | 144 kts | 65° |
| 2026-04-30 06:00 | 28.04542 | -16.56974 | 220 ft | 133 kts | 66° |
| 2026-04-30 06:00 | 28.04800 | -16.56239 | 220 ft | 62 kts | 68° |
| 2026-04-30 06:00 | 28.04914 | -16.55909 | 220 ft | 25 kts | 69° |
| 2026-04-30 06:01 | 28.04963 | -16.55844 | 220 ft | 9 kts | 16° |
| 2026-04-30 06:01 | 28.05023 | -16.55847 | 220 ft | 8 kts | 340° |
| 2026-04-30 06:01 | 28.05070 | -16.55875 | 220 ft | 7 kts | 313° |
| 2026-04-30 06:01 | 28.05085 | -16.55925 | 220 ft | 7 kts | 277° |
| 2026-04-30 06:02 | 28.05076 | -16.55996 | 220 ft | 11 kts | 251° |
| 2026-04-30 06:02 | 28.05042 | -16.56093 | 220 ft | 15 kts | 249° |
| 2026-04-30 06:02 | 28.04997 | -16.56224 | 220 ft | 19 kts | 248° |
| 2026-04-30 06:02 | 28.04942 | -16.56383 | 220 ft | 21 kts | 248° |
| 2026-04-30 06:03 | 28.04887 | -16.56540 | 220 ft | 21 kts | 248° |
| 2026-04-30 06:03 | 28.04834 | -16.56693 | 220 ft | 20 kts | 248° |
| 2026-04-30 06:03 | 28.04783 | -16.56838 | 220 ft | 19 kts | 249° |
| 2026-04-30 06:03 | 28.04735 | -16.56977 | 220 ft | 18 kts | 248° |
| 2026-04-30 06:04 | 28.04685 | -16.57112 | 220 ft | 18 kts | 242° |
| 2026-04-30 06:04 | 28.04634 | -16.57237 | 220 ft | 17 kts | 249° |
| 2026-04-30 06:04 | 28.04592 | -16.57361 | 220 ft | 16 kts | 249° |
| 2026-04-30 06:05 | 28.04534 | -16.57531 | 219 ft | 3 kts | 250° |
| 2026-04-30 06:05 | 28.04538 | -16.57554 | 220 ft | 3 kts | 310° |
| 2026-04-30 06:05 | 28.04569 | -16.57571 | 220 ft | 6 kts | 342° |
| 2026-04-30 06:05 | 28.04616 | -16.57588 | 220 ft | 8 kts | 347° |
| 2026-04-30 06:06 | 28.04673 | -16.57602 | 220 ft | 8 kts | 339° |
| 2026-04-30 06:06 | 28.04722 | -16.57625 | 220 ft | 4 kts | 338° |
| 2026-04-30 06:06 | 28.04726 | -16.57626 | 220 ft | 0 kts | 338° |
| 2026-04-30 06:06 | 28.04729 | -16.57628 | 220 ft | 0 kts | 338° |